createdAt,value
2018-07-11T00:01:27.859Z,14.83
2018-07-11T00:03:56.410Z,14.94
2018-07-11T00:06:26.228Z,14.95
2018-07-11T00:08:54.794Z,15.01
2018-07-11T00:11:23.342Z,15.01
2018-07-11T00:13:51.841Z,15.01
2018-07-11T00:16:20.349Z,15.21
2018-07-11T00:18:48.902Z,15.21
2018-07-11T00:21:17.450Z,15.27
2018-07-11T00:23:45.988Z,15.17
2018-07-11T00:26:14.550Z,15.32
2018-07-11T00:28:43.061Z,15.27
2018-07-11T00:31:11.637Z,15.37
2018-07-11T00:33:40.135Z,15.31
2018-07-11T00:36:08.697Z,15.18
2018-07-11T00:38:37.258Z,15.16
2018-07-11T00:41:06.609Z,15.07
2018-07-11T00:43:35.579Z,15.12
2018-07-11T00:46:05.124Z,15.11
2018-07-11T00:48:33.869Z,15.08
2018-07-11T00:51:03.115Z,14.99
2018-07-11T00:53:32.930Z,15.08
2018-07-11T00:56:02.282Z,15.06
2018-07-11T00:58:33.251Z,14.99
2018-07-11T01:01:09.819Z,14.98
2018-07-11T01:03:41.557Z,15.03
2018-07-11T01:06:10.534Z,15.02
2018-07-11T01:08:41.183Z,15.03
2018-07-11T01:11:15.796Z,15.04
2018-07-11T01:13:45.634Z,15.02
2018-07-11T01:16:15.418Z,14.97
2018-07-11T01:18:47.507Z,15.02
2018-07-11T01:21:16.046Z,15.05
2018-07-11T01:23:44.496Z,14.99
2018-07-11T01:26:13.549Z,15.03
2018-07-11T01:28:42.054Z,15.04
2018-07-11T01:31:10.545Z,14.99
2018-07-11T01:33:39.033Z,15.06
2018-07-11T01:36:07.522Z,15.05
2018-07-11T01:38:36.022Z,15.01
2018-07-11T01:41:04.564Z,14.97
2018-07-11T01:43:33.097Z,14.95
2018-07-11T01:46:01.628Z,15.06
2018-07-11T01:48:30.173Z,15.13
2018-07-11T01:50:58.717Z,15.10
2018-07-11T01:53:27.234Z,15.12
2018-07-11T01:55:55.809Z,15.00
2018-07-11T01:58:24.392Z,14.78
2018-07-11T02:00:52.965Z,14.96
2018-07-11T02:03:21.499Z,14.98
2018-07-11T02:05:50.390Z,14.83
2018-07-11T02:08:18.941Z,14.62
2018-07-11T02:10:48.066Z,14.36
2018-07-11T02:13:16.609Z,14.23
2018-07-11T02:15:47.148Z,14.26
2018-07-11T02:18:17.676Z,14.23
2018-07-11T02:20:46.866Z,14.30
2018-07-11T02:23:16.111Z,14.42
2018-07-11T02:25:44.660Z,14.49
2018-07-11T02:28:13.282Z,14.68
2018-07-11T02:30:41.958Z,14.72
2018-07-11T02:33:10.513Z,14.76
2018-07-11T02:35:39.070Z,14.74
2018-07-11T02:38:07.625Z,14.87
2018-07-11T02:40:36.110Z,14.89
2018-07-11T02:43:04.677Z,15.01
2018-07-11T02:45:33.246Z,15.08
2018-07-11T02:48:01.835Z,15.03
2018-07-11T02:50:30.370Z,15.03
2018-07-11T02:52:58.957Z,15.04
2018-07-11T02:55:27.461Z,15.09
2018-07-11T02:57:56.014Z,14.85
2018-07-11T03:00:24.503Z,14.74
2018-07-11T03:02:53.005Z,14.87
2018-07-11T03:05:21.537Z,14.84
2018-07-11T03:07:50.142Z,14.97
2018-07-11T03:10:18.617Z,14.93
2018-07-11T03:12:47.197Z,15.07
2018-07-11T03:15:15.741Z,15.06
2018-07-11T03:17:44.273Z,15.06
2018-07-11T03:20:12.743Z,15.05
2018-07-11T03:22:41.253Z,15.02
2018-07-11T03:25:09.797Z,14.97
2018-07-11T03:27:38.377Z,14.98
2018-07-11T03:30:06.887Z,15.09
2018-07-11T03:32:35.425Z,15.13
2018-07-11T03:35:03.892Z,15.15
2018-07-11T03:37:32.472Z,15.07
2018-07-11T03:40:01.015Z,15.07
2018-07-11T03:42:29.546Z,15.13
2018-07-11T03:44:58.077Z,15.05
2018-07-11T03:47:26.606Z,14.86
2018-07-11T03:49:55.068Z,14.90
2018-07-11T03:52:23.625Z,14.89
2018-07-11T03:54:52.081Z,15.00
2018-07-11T03:57:20.586Z,14.93
2018-07-11T03:59:49.055Z,14.91
2018-07-11T04:02:17.625Z,14.90
2018-07-11T04:04:46.162Z,14.90
2018-07-11T04:07:14.614Z,14.96
2018-07-11T04:09:43.077Z,15.00
2018-07-11T04:12:11.589Z,15.09
2018-07-11T04:14:40.064Z,14.97
2018-07-11T04:17:08.607Z,15.01
2018-07-11T04:19:37.094Z,15.12
2018-07-11T04:22:06.414Z,15.07
2018-07-11T04:24:35.001Z,14.99
2018-07-11T04:27:03.781Z,14.99
2018-07-11T04:29:32.413Z,14.83
2018-07-11T04:32:00.951Z,14.70
2018-07-11T04:34:29.659Z,14.88
2018-07-11T04:36:58.357Z,15.02
2018-07-11T04:39:27.018Z,15.11
2018-07-11T04:41:55.800Z,15.35
2018-07-11T04:44:24.435Z,15.61
2018-07-11T04:46:53.224Z,15.82
2018-07-11T04:49:21.830Z,15.93
2018-07-11T04:51:56.448Z,15.61
2018-07-11T04:54:25.078Z,15.45
2018-07-11T04:56:53.970Z,15.28
2018-07-11T04:59:22.503Z,15.15
2018-07-11T05:01:51.293Z,15.27
2018-07-11T05:04:20.662Z,15.44
2018-07-11T05:06:49.177Z,15.31
2018-07-11T05:09:17.728Z,15.24
2018-07-11T05:11:46.278Z,15.16
2018-07-11T05:14:14.806Z,15.42
2018-07-11T05:16:43.341Z,15.64
2018-07-11T05:19:11.853Z,15.85
2018-07-11T05:21:40.317Z,15.93
2018-07-11T05:24:08.816Z,15.96
2018-07-11T05:26:37.277Z,15.81
2018-07-11T05:29:05.793Z,15.82
2018-07-11T05:31:34.257Z,15.82
2018-07-11T05:34:02.739Z,15.85
2018-07-11T05:36:31.242Z,15.95
2018-07-11T05:38:59.739Z,16.08
2018-07-11T05:41:28.330Z,16.46
2018-07-11T05:43:57.145Z,16.42
2018-07-11T05:46:25.630Z,16.37
2018-07-11T05:48:54.169Z,16.25
2018-07-11T05:51:22.663Z,16.04
2018-07-11T05:53:51.200Z,16.01
2018-07-11T05:56:19.674Z,16.21
2018-07-11T05:58:48.396Z,16.41
2018-07-11T06:01:16.884Z,16.64
2018-07-11T06:03:45.439Z,16.93
2018-07-11T06:06:13.934Z,17.23
2018-07-11T06:08:42.457Z,17.34
2018-07-11T06:11:19.237Z,17.35
2018-07-11T06:13:47.773Z,17.12
2018-07-11T06:16:16.308Z,17.05
2018-07-11T06:18:44.813Z,17.19
2018-07-11T06:21:13.362Z,17.58
2018-07-11T06:23:42.080Z,18.07
2018-07-11T06:26:10.611Z,18.25
2018-07-11T06:28:39.130Z,18.22
2018-07-11T06:31:07.697Z,18.46
2018-07-11T06:33:36.358Z,18.68
2018-07-11T06:36:04.945Z,18.37
2018-07-11T06:38:33.472Z,18.36
2018-07-11T06:41:02.161Z,18.17
2018-07-11T06:43:30.655Z,17.88
2018-07-11T06:45:59.181Z,17.86
2018-07-11T06:48:27.825Z,17.92
2018-07-11T06:50:56.612Z,18.14
2018-07-11T06:53:25.119Z,18.88
2018-07-11T06:55:53.655Z,18.71
2018-07-11T06:58:22.861Z,18.62
2018-07-11T07:00:51.385Z,18.93
2018-07-11T07:03:19.922Z,19.07
2018-07-11T07:05:49.021Z,19.20
2018-07-11T07:08:17.529Z,19.99
2018-07-11T07:10:46.029Z,20.53
2018-07-11T07:13:14.496Z,20.60
2018-07-11T07:15:42.981Z,20.49
2018-07-11T07:18:11.843Z,21.13
2018-07-11T07:20:40.377Z,21.65
2018-07-11T07:23:08.864Z,21.88
2018-07-11T07:25:37.373Z,22.17
2018-07-11T07:28:05.919Z,21.84
2018-07-11T07:30:34.429Z,22.15
2018-07-11T07:33:02.931Z,22.63
2018-07-11T07:35:31.454Z,22.47
2018-07-11T07:37:59.950Z,22.53
2018-07-11T07:40:28.459Z,22.81
2018-07-11T07:42:57.013Z,22.88
2018-07-11T07:45:25.857Z,23.00
2018-07-11T07:47:54.413Z,21.81
2018-07-11T07:50:23.018Z,21.53
2018-07-11T07:52:51.745Z,22.11
2018-07-11T07:55:20.391Z,21.89
2018-07-11T07:57:49.086Z,22.30
2018-07-11T08:00:17.670Z,22.06
2018-07-11T08:02:46.214Z,22.69
2018-07-11T08:05:14.809Z,24.02
2018-07-11T08:07:43.301Z,24.79
2018-07-11T08:10:11.989Z,26.13
2018-07-11T08:12:42.342Z,27.61
2018-07-11T08:15:10.870Z,28.18
2018-07-11T08:17:40.057Z,28.64
2018-07-11T08:20:08.602Z,29.56
2018-07-11T08:23:18.706Z,30.78
2018-07-11T08:25:59.701Z,30.74
2018-07-11T08:29:43.933Z,30.75
2018-07-11T08:34:32.428Z,30.51
2018-07-11T08:37:10.625Z,31.29
2018-07-11T08:41:54.469Z,31.40
2018-07-11T08:46:38.237Z,30.05
2018-07-11T08:51:20.546Z,30.06
2018-07-11T08:54:04.377Z,25.94
2018-07-11T08:57:13.449Z,25.95
2018-07-11T09:01:58.048Z,28.50
2018-07-11T09:05:44.395Z,30.08
2018-07-11T09:08:24.026Z,29.68
2018-07-11T09:13:06.428Z,28.16
2018-07-11T09:15:55.247Z,26.32
2018-07-11T09:18:36.853Z,25.79
2018-07-11T09:21:17.048Z,25.99
2018-07-11T09:23:56.575Z,24.45
2018-07-11T09:26:26.127Z,23.63
2018-07-11T09:28:54.731Z,23.14
2018-07-11T09:31:23.435Z,22.16
2018-07-11T09:33:51.986Z,21.52
2018-07-11T09:36:20.577Z,21.38
2018-07-11T09:38:49.129Z,20.91
2018-07-11T09:42:46.796Z,20.68
2018-07-11T09:45:15.419Z,20.19
2018-07-11T09:47:44.003Z,20.37
2018-07-11T09:50:12.700Z,21.41
2018-07-11T09:52:41.374Z,22.22
2018-07-11T09:55:10.030Z,22.45
2018-07-11T09:57:39.954Z,23.18
2018-07-11T10:00:12.746Z,23.18
2018-07-11T10:02:41.814Z,25.10
2018-07-11T10:05:10.421Z,26.80
2018-07-11T10:07:39.027Z,27.67
2018-07-11T10:10:07.638Z,28.78
2018-07-11T10:12:36.253Z,27.36
2018-07-11T10:15:04.853Z,26.02
2018-07-11T10:17:34.090Z,25.14
2018-07-11T10:20:02.627Z,24.46
2018-07-11T10:22:31.207Z,24.84
2018-07-11T10:25:00.770Z,23.77
2018-07-11T10:27:29.282Z,23.76
2018-07-11T10:29:57.797Z,23.22
2018-07-11T10:32:26.446Z,22.98
2018-07-11T10:34:55.046Z,23.10
2018-07-11T10:37:23.640Z,23.19
2018-07-11T10:39:52.217Z,22.88
2018-07-11T10:42:22.226Z,23.15
2018-07-11T10:44:50.724Z,22.09
2018-07-11T10:48:43.728Z,22.12
2018-07-11T10:51:12.673Z,23.23
2018-07-11T10:53:41.341Z,22.89
2018-07-11T10:56:09.844Z,23.29
2018-07-11T10:58:39.337Z,22.75
2018-07-11T11:01:07.955Z,22.59
2018-07-11T11:03:36.478Z,22.31
2018-07-11T11:06:05.026Z,22.00
2018-07-11T11:08:33.521Z,22.35
2018-07-11T11:11:02.076Z,22.61
2018-07-11T11:13:30.737Z,22.37
2018-07-11T11:15:59.304Z,22.59
2018-07-11T11:18:27.949Z,22.70
2018-07-11T11:20:57.151Z,24.34
2018-07-11T11:23:25.667Z,24.15
2018-07-11T11:25:54.199Z,23.81
2018-07-11T11:28:22.670Z,24.35
2018-07-11T11:30:51.189Z,25.98
2018-07-11T11:33:19.697Z,26.60
2018-07-11T11:35:48.264Z,25.46
2018-07-11T11:38:16.749Z,25.16
2018-07-11T11:40:45.249Z,24.33
2018-07-11T11:43:13.794Z,24.02
2018-07-11T11:45:42.370Z,24.34
2018-07-11T11:48:11.032Z,25.62
2018-07-11T11:50:41.483Z,26.31
2018-07-11T11:53:10.010Z,25.08
2018-07-11T11:55:38.569Z,24.77
2018-07-11T11:58:07.515Z,24.92
2018-07-11T12:00:36.070Z,25.31
2018-07-11T12:03:05.583Z,26.67
2018-07-11T12:05:34.131Z,26.08
2018-07-11T12:08:02.650Z,26.17
2018-07-11T12:10:31.420Z,26.26
2018-07-11T12:13:01.517Z,27.15
2018-07-11T12:15:30.023Z,27.76
2018-07-11T12:17:58.498Z,28.55
2018-07-11T12:20:27.010Z,28.91
2018-07-11T12:22:55.643Z,28.40
2018-07-11T12:25:24.250Z,27.83
2018-07-11T12:27:52.827Z,27.32
2018-07-11T12:30:21.377Z,26.62
2018-07-11T12:32:49.931Z,26.35
2018-07-11T12:35:19.399Z,25.77
2018-07-11T12:37:47.925Z,25.64
2018-07-11T12:40:16.525Z,25.02
2018-07-11T12:42:45.136Z,24.53
2018-07-11T12:45:13.725Z,25.30
2018-07-11T12:47:50.134Z,25.31
2018-07-11T12:50:18.697Z,24.77
2018-07-11T12:52:48.237Z,24.88
2018-07-11T12:55:17.833Z,24.67
2018-07-11T12:57:46.455Z,24.53
2018-07-11T13:00:15.924Z,24.41
2018-07-11T13:02:45.192Z,24.62
2018-07-11T13:05:13.730Z,24.89
2018-07-11T13:07:42.341Z,24.97
2018-07-11T13:13:03.977Z,24.94
2018-07-11T13:15:32.542Z,26.21
2018-07-11T13:18:01.262Z,25.43
2018-07-11T13:20:29.742Z,24.80
2018-07-11T13:22:58.309Z,24.37
2018-07-11T13:25:26.976Z,23.78
2018-07-11T13:27:55.471Z,23.02
2018-07-11T13:30:24.503Z,22.03
2018-07-11T13:32:53.110Z,21.21
2018-07-11T13:35:21.592Z,20.50
2018-07-11T13:40:43.455Z,20.97
2018-07-11T13:43:12.597Z,22.25
2018-07-11T13:45:41.398Z,24.69
2018-07-11T13:48:09.942Z,25.18
2018-07-11T13:50:38.450Z,25.68
2018-07-11T13:53:07.025Z,25.30
2018-07-11T13:55:35.502Z,24.97
2018-07-11T13:58:04.058Z,24.72
2018-07-11T14:00:33.725Z,24.39
2018-07-11T14:03:02.839Z,25.95
2018-07-11T14:05:31.333Z,26.52
2018-07-11T14:07:59.901Z,25.82
2018-07-11T14:10:28.385Z,25.41
2018-07-11T14:12:56.958Z,24.08
2018-07-11T14:15:25.445Z,23.19
2018-07-11T14:17:53.993Z,23.02
2018-07-11T14:20:22.534Z,22.40
2018-07-11T14:22:51.014Z,22.71
2018-07-11T14:25:21.266Z,23.02
2018-07-11T14:27:50.924Z,23.25
2018-07-11T14:30:23.801Z,22.99
2018-07-11T14:32:55.458Z,23.39
2018-07-11T14:35:24.006Z,23.04
2018-07-11T14:37:52.502Z,23.56
2018-07-11T14:40:22.029Z,23.59
2018-07-11T14:42:50.585Z,23.20
2018-07-11T14:45:19.941Z,23.21
2018-07-11T14:47:53.889Z,22.84
2018-07-11T14:50:22.442Z,22.94
2018-07-11T14:52:51.281Z,22.93
2018-07-11T14:55:19.879Z,23.69
2018-07-11T14:57:49.066Z,24.54
2018-07-11T15:00:17.586Z,25.82
2018-07-11T15:02:46.161Z,25.46
2018-07-11T15:05:14.663Z,24.55
2018-07-11T15:07:43.335Z,23.79
2018-07-11T15:10:11.868Z,23.76
2018-07-11T15:12:40.443Z,23.33
2018-07-11T15:15:08.942Z,23.49
2018-07-11T15:17:37.548Z,24.37
2018-07-11T15:20:06.134Z,25.11
2018-07-11T15:22:34.702Z,25.27
2018-07-11T15:25:03.207Z,25.26
2018-07-11T15:27:31.765Z,25.22
2018-07-11T15:30:00.277Z,24.75
2018-07-11T15:32:28.918Z,24.60
2018-07-11T15:34:57.446Z,24.38
2018-07-11T15:37:26.011Z,24.27
2018-07-11T15:39:54.969Z,24.12
2018-07-11T15:42:23.519Z,24.23
2018-07-11T15:44:52.917Z,24.72
2018-07-11T15:47:22.411Z,23.79
2018-07-11T15:49:52.709Z,22.69
2018-07-11T15:52:22.942Z,22.04
2018-07-11T15:54:51.945Z,21.59
2018-07-11T15:57:33.822Z,21.42
2018-07-11T16:00:07.947Z,21.17
2018-07-11T16:02:41.071Z,20.85
2018-07-11T16:05:10.288Z,20.59
2018-07-11T16:07:41.778Z,20.57
2018-07-11T16:10:10.642Z,20.32
2018-07-11T16:12:39.161Z,20.15
2018-07-11T16:15:07.701Z,20.20
2018-07-11T16:17:36.170Z,20.13
2018-07-11T16:20:04.866Z,19.97
2018-07-11T16:22:33.761Z,19.71
2018-07-11T16:25:02.395Z,19.64
2018-07-11T16:27:30.932Z,19.55
2018-07-11T16:29:59.462Z,19.45
2018-07-11T16:32:27.973Z,19.46
2018-07-11T16:34:56.542Z,19.65
2018-07-11T16:37:25.139Z,19.81
2018-07-11T16:39:54.028Z,19.96
2018-07-11T16:42:22.497Z,20.02
2018-07-11T16:44:52.242Z,20.22
2018-07-11T16:47:20.829Z,20.29
2018-07-11T16:49:50.544Z,20.46
2018-07-11T16:52:19.119Z,21.21
2018-07-11T16:54:47.701Z,21.38
2018-07-11T16:57:22.120Z,21.07
2018-07-11T16:59:57.456Z,21.02
2018-07-11T17:02:27.158Z,21.53
2018-07-11T17:05:00.122Z,21.68
2018-07-11T17:07:28.686Z,21.48
2018-07-11T17:09:59.722Z,20.83
2018-07-11T17:12:28.526Z,20.34
2018-07-11T17:14:59.762Z,20.12
2018-07-11T17:17:34.921Z,19.70
2018-07-11T17:20:08.911Z,19.48
2018-07-11T17:22:49.945Z,19.28
2018-07-11T17:25:20.892Z,19.09
2018-07-11T17:27:57.194Z,19.03
2018-07-11T17:30:25.798Z,19.04
2018-07-11T17:32:55.419Z,19.00
2018-07-11T17:35:23.951Z,19.00
2018-07-11T17:37:52.594Z,19.12
2018-07-11T17:40:25.206Z,19.22
2018-07-11T17:42:55.346Z,19.24
2018-07-11T17:45:23.912Z,19.38
2018-07-11T17:47:57.445Z,19.34
2018-07-11T17:50:29.810Z,19.31
2018-07-11T17:53:08.902Z,19.39
2018-07-11T17:55:46.426Z,19.55
2018-07-11T17:58:14.965Z,19.42
2018-07-11T18:00:50.034Z,19.58
2018-07-11T18:03:27.446Z,19.50
2018-07-11T18:07:02.807Z,19.29
2018-07-11T18:09:44.036Z,19.29
2018-07-11T18:12:23.561Z,19.22
2018-07-11T18:15:02.342Z,19.37
2018-07-11T18:17:39.322Z,19.39
2018-07-11T18:20:16.909Z,19.38
2018-07-11T18:22:58.471Z,19.40
2018-07-11T18:26:37.873Z,19.20
2018-07-11T18:29:29.111Z,18.98
2018-07-11T18:32:38.551Z,18.93
2018-07-11T18:35:19.478Z,19.06
2018-07-11T18:37:57.233Z,18.90
2018-07-11T18:41:50.537Z,18.73
2018-07-11T18:44:25.912Z,18.50
2018-07-11T18:47:08.569Z,18.46
2018-07-11T18:49:52.201Z,18.35
2018-07-11T18:52:30.577Z,18.33
2018-07-11T18:55:08.346Z,18.20
2018-07-11T18:57:46.957Z,18.08
2018-07-11T19:01:52.258Z,18.10
2018-07-11T19:04:25.053Z,17.94
2018-07-11T19:07:11.716Z,17.96
2018-07-11T19:09:51.930Z,17.83
2018-07-11T19:12:30.394Z,17.69
2018-07-11T19:15:05.580Z,17.67
2018-07-11T19:18:05.968Z,17.65
2018-07-11T19:20:38.553Z,17.48
2018-07-11T19:23:33.465Z,17.44
2018-07-11T19:26:10.956Z,17.43
2018-07-11T19:29:48.756Z,17.32
2018-07-11T19:32:53.820Z,17.14
2018-07-11T19:35:32.914Z,17.02
2018-07-11T19:38:05.598Z,17.08
2018-07-11T19:40:47.416Z,17.12
2018-07-11T19:45:32.403Z,17.06
2018-07-11T19:48:17.817Z,16.78
2018-07-11T19:50:59.642Z,16.75
2018-07-11T19:54:36.046Z,16.74
2018-07-11T19:57:04.701Z,16.59
2018-07-11T19:59:33.276Z,16.65
2018-07-11T20:02:02.922Z,16.51
2018-07-11T20:04:31.437Z,16.51
2018-07-11T20:07:00.094Z,16.37
2018-07-11T20:09:28.690Z,16.37
2018-07-11T20:11:57.558Z,16.43
2018-07-11T20:14:26.182Z,16.41
2018-07-11T20:16:54.782Z,16.31
2018-07-11T20:19:23.705Z,16.41
2018-07-11T20:21:52.302Z,16.39
2018-07-11T20:24:20.837Z,16.31
2018-07-11T20:26:49.472Z,16.35
2018-07-11T20:29:18.074Z,16.39
2018-07-11T20:31:46.678Z,16.38
2018-07-11T20:34:15.357Z,16.31
2018-07-11T20:36:45.118Z,16.35
2018-07-11T20:39:13.735Z,16.36
2018-07-11T20:41:42.371Z,16.30
2018-07-11T20:44:11.010Z,16.32
2018-07-11T20:46:39.571Z,16.25
2018-07-11T20:49:13.476Z,16.31
2018-07-11T20:51:42.958Z,16.36
2018-07-11T20:54:11.516Z,16.29
2018-07-11T20:56:40.461Z,16.20
2018-07-11T20:59:20.189Z,16.02
2018-07-11T21:01:59.790Z,15.87
2018-07-11T21:04:40.120Z,15.67
2018-07-11T21:07:20.220Z,15.62
2018-07-11T21:09:58.531Z,15.50
2018-07-11T21:13:30.424Z,15.46
2018-07-11T21:18:12.631Z,15.31
2018-07-11T21:20:41.189Z,15.20
2018-07-11T21:23:10.712Z,15.20
2018-07-11T21:25:39.462Z,15.26
2018-07-11T21:28:08.145Z,15.23
2018-07-11T21:30:37.513Z,15.25
2018-07-11T21:33:06.320Z,15.19
2018-07-11T21:35:35.018Z,15.20
2018-07-11T21:38:04.577Z,15.12
2018-07-11T21:40:33.489Z,15.20
2018-07-11T21:43:02.034Z,15.37
2018-07-11T21:45:30.663Z,15.47
2018-07-11T21:47:59.135Z,15.55
2018-07-11T21:50:27.719Z,15.54
2018-07-11T21:52:56.349Z,15.69
2018-07-11T21:55:25.221Z,15.60
2018-07-11T21:57:53.876Z,15.71
2018-07-11T22:00:34.290Z,15.61
2018-07-11T22:03:03.387Z,15.60
2018-07-11T22:05:32.689Z,15.35
2018-07-11T22:08:01.263Z,15.26
2018-07-11T22:10:29.895Z,15.03
2018-07-11T22:12:58.453Z,15.04
2018-07-11T22:15:27.056Z,15.03
2018-07-11T22:18:06.806Z,15.05
2018-07-11T22:20:34.625Z,15.11
2018-07-11T22:23:03.559Z,15.12
2018-07-11T22:25:31.092Z,15.17
2018-07-11T22:27:58.425Z,15.12
2018-07-11T22:30:26.205Z,15.12
2018-07-11T22:32:55.114Z,15.25
2018-07-11T22:35:22.687Z,15.23
2018-07-11T22:37:50.003Z,15.16
2018-07-11T22:40:18.134Z,15.21
2018-07-11T22:42:45.436Z,15.33
2018-07-11T22:45:12.697Z,15.42
2018-07-11T22:47:39.986Z,15.23
2018-07-11T22:50:07.267Z,15.13
2018-07-11T22:52:34.579Z,15.08
2018-07-11T22:55:02.622Z,15.01
2018-07-11T22:57:30.991Z,15.02
2018-07-11T22:59:58.285Z,14.92
2018-07-11T23:02:25.612Z,14.97
2018-07-11T23:04:52.917Z,15.19
2018-07-11T23:07:20.246Z,15.12
2018-07-11T23:09:47.535Z,15.12
2018-07-11T23:12:14.864Z,15.18
2018-07-11T23:14:42.229Z,15.13
2018-07-11T23:17:09.799Z,15.04
2018-07-11T23:19:37.089Z,15.04
2018-07-11T23:22:04.488Z,15.11
2018-07-11T23:24:31.783Z,15.05
2018-07-11T23:26:59.092Z,15.06
2018-07-11T23:29:26.730Z,15.17
2018-07-11T23:31:54.790Z,15.13
2018-07-11T23:34:22.070Z,15.25
2018-07-11T23:36:49.418Z,15.31
2018-07-11T23:39:17.481Z,15.28
2018-07-11T23:41:44.806Z,15.34
2018-07-11T23:44:12.082Z,15.41
2018-07-11T23:46:39.384Z,15.43
2018-07-11T23:49:06.654Z,15.48
2018-07-11T23:51:33.951Z,15.44
2018-07-11T23:54:01.237Z,15.48
2018-07-11T23:56:28.549Z,15.52
2018-07-11T23:58:55.809Z,15.53
